AUA25N LOWW-EDDH
Flight info
| Callsign | AUA25N |
|---|---|
| Flight time | 1h 11m |
| Altitude | 36000 |
| Route | LANUX DCT LALUK DCT MILGU DCT SOGMA M748 BUMIL/N0400F240 M748 RARUP RARUP3P |
| Aircraft | A320/M-SDE3FGHIRWY/LB1 |
Departure
| Time | 2026-05-04 17:35 |
|---|---|
| Airport | Vienna International Airport (LOWW) |
Arrival
| Time | 2026-05-04 18:46 |
|---|---|
| Airport | Hamburg Helmut Schmidt Airport (EDDH) |
| Time | Latitude | Longitude | Altitude | Speed | Heading |
|---|---|---|---|---|---|
| 2026-05-04 16:30 | 48.11867 | 16.56880 | 621 ft | 0 kts | 206° |
| 2026-05-04 16:51 | 48.11885 | 16.56893 | 615 ft | 4 kts | 202° |
| 2026-05-04 16:51 | 48.11933 | 16.56901 | 613 ft | 4 kts | 123° |
| 2026-05-04 16:52 | 48.11953 | 16.56844 | 619 ft | 0 kts | 115° |
| 2026-05-04 16:53 | 48.11867 | 16.56880 | 621 ft | 0 kts | 206° |
| 2026-05-04 17:26 | 48.11881 | 16.56890 | 618 ft | 4 kts | 206° |
| 2026-05-04 17:26 | 48.11954 | 16.56939 | 616 ft | 4 kts | 179° |
| 2026-05-04 17:27 | 48.11982 | 16.56891 | 620 ft | 4 kts | 116° |
| 2026-05-04 17:27 | 48.11989 | 16.56868 | 612 ft | 0 kts | 115° |
| 2026-05-04 17:30 | 48.11951 | 16.56989 | 610 ft | 9 kts | 115° |
| 2026-05-04 17:31 | 48.11881 | 16.57183 | 621 ft | 12 kts | 133° |
| 2026-05-04 17:31 | 48.11882 | 16.57310 | 615 ft | 6 kts | 353° |
| 2026-05-04 17:32 | 48.11990 | 16.57332 | 615 ft | 10 kts | 65° |
| 2026-05-04 17:33 | 48.11966 | 16.57759 | 609 ft | 18 kts | 106° |
| 2026-05-04 17:33 | 48.11900 | 16.57851 | 613 ft | 9 kts | 163° |
| 2026-05-04 17:34 | 48.11157 | 16.58168 | 614 ft | 109 kts | 164° |
| 2026-05-04 17:34 | 48.10256 | 16.58549 | 614 ft | 158 kts | 165° |
| 2026-05-04 17:35 | 48.07065 | 16.59798 | 2522 ft | 163 kts | 166° |
| 2026-05-04 17:35 | 48.05045 | 16.62000 | 3291 ft | 202 kts | 126° |
| 2026-05-04 17:35 | 48.04555 | 16.64010 | 3919 ft | 213 kts | 102° |
| 2026-05-04 17:36 | 48.04687 | 16.66271 | 4562 ft | 227 kts | 75° |
| 2026-05-04 17:36 | 48.05547 | 16.68356 | 4994 ft | 248 kts | 43° |
| 2026-05-04 17:36 | 48.07039 | 16.69654 | 5515 ft | 268 kts | 21° |
| 2026-05-04 17:36 | 48.08778 | 16.71000 | 5950 ft | 288 kts | 35° |
| 2026-05-04 17:37 | 48.10386 | 16.72832 | 6721 ft | 292 kts | 40° |
| 2026-05-04 17:37 | 48.11939 | 16.74820 | 7502 ft | 295 kts | 42° |
| 2026-05-04 17:37 | 48.13518 | 16.76805 | 8290 ft | 299 kts | 36° |
| 2026-05-04 17:37 | 48.15369 | 16.78237 | 9070 ft | 302 kts | 16° |
| 2026-05-04 17:38 | 48.17448 | 16.78670 | 9831 ft | 304 kts | 355° |
| 2026-05-04 17:38 | 48.19502 | 16.77953 | 10468 ft | 309 kts | 334° |
| 2026-05-04 17:38 | 48.21288 | 16.76035 | 10659 ft | 327 kts | 310° |
| 2026-05-04 17:38 | 48.22852 | 16.73421 | 10924 ft | 345 kts | 309° |
| 2026-05-04 17:39 | 48.26069 | 16.67987 | 12210 ft | 355 kts | 309° |
| 2026-05-04 17:39 | 48.27744 | 16.65182 | 12916 ft | 358 kts | 309° |
| 2026-05-04 17:39 | 48.29417 | 16.62388 | 13605 ft | 361 kts | 309° |
| 2026-05-04 17:40 | 48.31085 | 16.59611 | 14216 ft | 365 kts | 310° |
| 2026-05-04 17:40 | 48.32792 | 16.56774 | 14830 ft | 368 kts | 309° |
| 2026-05-04 17:40 | 48.34513 | 16.53913 | 15439 ft | 370 kts | 309° |
| 2026-05-04 17:40 | 48.36245 | 16.51028 | 16048 ft | 373 kts | 310° |
| 2026-05-04 17:41 | 48.37986 | 16.48121 | 16657 ft | 376 kts | 309° |
| 2026-05-04 17:41 | 48.39742 | 16.45185 | 17257 ft | 379 kts | 310° |
| 2026-05-04 17:41 | 48.41509 | 16.42223 | 17853 ft | 381 kts | 309° |
| 2026-05-04 17:41 | 48.43284 | 16.39237 | 18427 ft | 384 kts | 309° |
| 2026-05-04 17:42 | 48.45072 | 16.36226 | 18962 ft | 387 kts | 309° |
| 2026-05-04 17:42 | 48.46866 | 16.33198 | 19498 ft | 389 kts | 310° |
| 2026-05-04 17:42 | 48.48672 | 16.30147 | 20046 ft | 391 kts | 310° |
| 2026-05-04 17:42 | 48.50484 | 16.27083 | 20594 ft | 393 kts | 309° |
| 2026-05-04 17:43 | 48.52310 | 16.23997 | 21132 ft | 395 kts | 310° |
| 2026-05-04 17:43 | 48.54147 | 16.20901 | 21648 ft | 398 kts | 310° |
| 2026-05-04 17:43 | 48.55996 | 16.17782 | 22161 ft | 400 kts | 310° |
| 2026-05-04 17:43 | 48.57853 | 16.14638 | 22647 ft | 402 kts | 310° |
| 2026-05-04 17:44 | 48.59719 | 16.11468 | 23132 ft | 405 kts | 310° |
| 2026-05-04 17:44 | 48.61596 | 16.08281 | 23583 ft | 407 kts | 310° |
| 2026-05-04 17:44 | 48.63484 | 16.05072 | 23959 ft | 409 kts | 310° |
| 2026-05-04 17:44 | 48.65379 | 16.01848 | 24346 ft | 411 kts | 310° |
| 2026-05-04 17:45 | 48.67281 | 15.98606 | 24724 ft | 413 kts | 310° |
| 2026-05-04 17:45 | 48.69190 | 15.95347 | 24897 ft | 413 kts | 310° |
| 2026-05-04 17:45 | 48.71093 | 15.92095 | 24931 ft | 413 kts | 310° |
| 2026-05-04 17:45 | 48.72996 | 15.88838 | 24934 ft | 413 kts | 310° |
| 2026-05-04 17:46 | 48.74896 | 15.85572 | 24935 ft | 413 kts | 310° |
| 2026-05-04 17:46 | 48.76791 | 15.82307 | 24934 ft | 413 kts | 310° |
| 2026-05-04 17:46 | 48.78689 | 15.79042 | 24933 ft | 413 kts | 310° |
| 2026-05-04 17:46 | 48.80589 | 15.75778 | 24936 ft | 413 kts | 310° |
| 2026-05-04 17:47 | 48.82488 | 15.72508 | 24940 ft | 413 kts | 310° |
| 2026-05-04 17:47 | 48.84387 | 15.69237 | 24937 ft | 413 kts | 310° |
| 2026-05-04 17:47 | 48.86287 | 15.65961 | 24939 ft | 413 kts | 310° |
| 2026-05-04 17:47 | 48.88269 | 15.62794 | 24940 ft | 415 kts | 317° |
| 2026-05-04 17:48 | 48.90556 | 15.60117 | 24940 ft | 416 kts | 326° |
| 2026-05-04 17:48 | 48.93064 | 15.57903 | 24943 ft | 417 kts | 329° |
| 2026-05-04 17:48 | 48.95590 | 15.55723 | 24942 ft | 417 kts | 329° |
| 2026-05-04 17:48 | 48.98112 | 15.53535 | 24944 ft | 417 kts | 328° |
| 2026-05-04 17:49 | 49.00634 | 15.51343 | 24946 ft | 418 kts | 328° |
| 2026-05-04 17:49 | 49.03159 | 15.49146 | 24956 ft | 419 kts | 328° |
| 2026-05-04 17:49 | 49.05690 | 15.46932 | 25320 ft | 421 kts | 328° |
| 2026-05-04 17:49 | 49.08233 | 15.44708 | 25708 ft | 422 kts | 328° |
| 2026-05-04 17:50 | 49.10784 | 15.42481 | 26078 ft | 423 kts | 328° |
| 2026-05-04 17:50 | 49.13349 | 15.40246 | 26438 ft | 425 kts | 328° |
| 2026-05-04 17:50 | 49.15919 | 15.38006 | 26794 ft | 426 kts | 328° |
| 2026-05-04 17:50 | 49.18499 | 15.35747 | 27146 ft | 428 kts | 328° |
| 2026-05-04 17:51 | 49.21049 | 15.33510 | 28004 ft | 415 kts | 328° |
| 2026-05-04 17:51 | 49.23542 | 15.31319 | 28515 ft | 415 kts | 328° |
| 2026-05-04 17:51 | 49.26052 | 15.29107 | 28810 ft | 418 kts | 328° |
| 2026-05-04 17:51 | 49.28578 | 15.26880 | 29137 ft | 420 kts | 328° |
| 2026-05-04 17:52 | 49.31112 | 15.24644 | 29474 ft | 421 kts | 328° |
| 2026-05-04 17:52 | 49.33656 | 15.22395 | 29813 ft | 423 kts | 328° |
| 2026-05-04 17:52 | 49.36212 | 15.20131 | 30100 ft | 425 kts | 327° |
| 2026-05-04 17:52 | 49.38775 | 15.17860 | 30362 ft | 426 kts | 327° |
| 2026-05-04 17:53 | 49.41349 | 15.15580 | 30636 ft | 428 kts | 327° |
| 2026-05-04 17:53 | 49.43922 | 15.13301 | 30978 ft | 427 kts | 327° |
| 2026-05-04 17:53 | 49.46492 | 15.11022 | 31338 ft | 426 kts | 327° |
| 2026-05-04 17:53 | 49.49019 | 15.08780 | 31687 ft | 425 kts | 327° |
| 2026-05-04 17:54 | 49.51610 | 15.06477 | 32052 ft | 424 kts | 327° |
| 2026-05-04 17:54 | 49.54123 | 15.04236 | 32399 ft | 423 kts | 327° |
| 2026-05-04 17:54 | 49.56665 | 15.01965 | 32740 ft | 422 kts | 327° |
| 2026-05-04 17:54 | 49.59203 | 14.99692 | 33083 ft | 422 kts | 327° |
| 2026-05-04 17:55 | 49.61770 | 14.97393 | 33429 ft | 421 kts | 327° |
| 2026-05-04 17:55 | 49.64263 | 14.95159 | 33772 ft | 420 kts | 327° |
| 2026-05-04 17:55 | 49.66790 | 14.92895 | 34073 ft | 420 kts | 327° |
| 2026-05-04 17:55 | 49.69316 | 14.90632 | 34334 ft | 420 kts | 327° |
| 2026-05-04 17:56 | 49.71854 | 14.88356 | 34458 ft | 423 kts | 327° |
| 2026-05-04 17:56 | 49.74406 | 14.86063 | 34578 ft | 426 kts | 327° |
| 2026-05-04 17:56 | 49.76975 | 14.83747 | 34710 ft | 428 kts | 327° |
| 2026-05-04 17:56 | 49.79551 | 14.81416 | 34833 ft | 431 kts | 327° |
| 2026-05-04 17:57 | 49.82147 | 14.79065 | 34960 ft | 433 kts | 327° |
| 2026-05-04 17:57 | 49.84751 | 14.76707 | 35114 ft | 434 kts | 327° |
| 2026-05-04 17:57 | 49.87360 | 14.74347 | 35307 ft | 434 kts | 327° |
| 2026-05-04 17:57 | 49.89967 | 14.71983 | 35505 ft | 434 kts | 327° |
| 2026-05-04 17:58 | 49.92570 | 14.69619 | 35692 ft | 434 kts | 327° |
| 2026-05-04 17:58 | 49.95170 | 14.67256 | 35883 ft | 433 kts | 327° |
| 2026-05-04 17:58 | 50.00370 | 14.62526 | 35952 ft | 432 kts | 327° |
| 2026-05-04 17:59 | 50.05558 | 14.57796 | 35950 ft | 432 kts | 326° |
| 2026-05-04 18:00 | 50.13318 | 14.50673 | 35951 ft | 432 kts | 326° |
| 2026-05-04 18:00 | 50.18487 | 14.45913 | 35948 ft | 432 kts | 326° |
| 2026-05-04 18:01 | 50.22790 | 14.41950 | 35954 ft | 432 kts | 326° |
| 2026-05-04 18:01 | 50.27963 | 14.37188 | 35966 ft | 432 kts | 326° |
| 2026-05-04 18:02 | 50.35712 | 14.30004 | 35974 ft | 432 kts | 326° |
| 2026-05-04 18:02 | 50.40882 | 14.25193 | 35975 ft | 432 kts | 326° |
| 2026-05-04 18:03 | 50.46044 | 14.20380 | 35982 ft | 432 kts | 326° |
| 2026-05-04 18:03 | 50.51211 | 14.15559 | 35981 ft | 432 kts | 325° |
| 2026-05-04 18:04 | 50.56339 | 14.10769 | 35971 ft | 432 kts | 325° |
| 2026-05-04 18:05 | 50.64074 | 14.03503 | 35970 ft | 432 kts | 325° |
| 2026-05-04 18:05 | 50.69236 | 13.98629 | 35976 ft | 432 kts | 325° |
| 2026-05-04 18:06 | 50.76986 | 13.91310 | 35984 ft | 433 kts | 325° |
| 2026-05-04 18:06 | 50.82126 | 13.86354 | 35984 ft | 432 kts | 323° |
| 2026-05-04 18:07 | 50.87093 | 13.81011 | 35987 ft | 431 kts | 321° |
| 2026-05-04 18:07 | 50.91983 | 13.75511 | 35986 ft | 431 kts | 321° |
| 2026-05-04 18:08 | 50.96895 | 13.70044 | 35987 ft | 431 kts | 321° |
| 2026-05-04 18:08 | 51.01836 | 13.64635 | 35987 ft | 431 kts | 321° |
| 2026-05-04 18:09 | 51.11751 | 13.53891 | 35985 ft | 431 kts | 322° |
| 2026-05-04 18:10 | 51.16750 | 13.48607 | 35986 ft | 431 kts | 322° |
| 2026-05-04 18:10 | 51.21737 | 13.43310 | 35983 ft | 431 kts | 322° |
| 2026-05-04 18:11 | 51.26708 | 13.37981 | 35980 ft | 430 kts | 322° |
| 2026-05-04 18:11 | 51.31670 | 13.32628 | 35975 ft | 430 kts | 322° |
| 2026-05-04 18:12 | 51.36593 | 13.27312 | 35969 ft | 430 kts | 322° |
| 2026-05-04 18:12 | 51.41550 | 13.21966 | 35967 ft | 430 kts | 322° |
| 2026-05-04 18:13 | 51.46507 | 13.16603 | 35957 ft | 430 kts | 321° |
| 2026-05-04 18:14 | 51.53928 | 13.08523 | 35949 ft | 430 kts | 321° |
| 2026-05-04 18:14 | 51.58882 | 13.03124 | 35946 ft | 430 kts | 321° |
| 2026-05-04 18:15 | 51.68788 | 12.92287 | 35946 ft | 431 kts | 321° |
| 2026-05-04 18:16 | 51.73745 | 12.86856 | 35949 ft | 431 kts | 321° |
| 2026-05-04 18:16 | 51.78697 | 12.81392 | 35956 ft | 431 kts | 321° |
| 2026-05-04 18:17 | 51.86113 | 12.73173 | 35962 ft | 431 kts | 321° |
| 2026-05-04 18:18 | 51.93532 | 12.64946 | 35968 ft | 431 kts | 321° |
| 2026-05-04 18:18 | 51.98477 | 12.59447 | 35969 ft | 431 kts | 320° |
| 2026-05-04 18:19 | 52.05879 | 12.51164 | 35964 ft | 430 kts | 320° |
| 2026-05-04 18:19 | 52.10800 | 12.45626 | 35980 ft | 430 kts | 320° |
| 2026-05-04 18:20 | 52.15724 | 12.40086 | 35983 ft | 430 kts | 320° |
| 2026-05-04 18:20 | 52.20640 | 12.34549 | 35982 ft | 429 kts | 320° |
| 2026-05-04 18:21 | 52.25549 | 12.28997 | 35980 ft | 429 kts | 320° |
| 2026-05-04 18:21 | 52.30448 | 12.23436 | 35980 ft | 429 kts | 320° |
| 2026-05-04 18:22 | 52.35312 | 12.17913 | 35979 ft | 429 kts | 320° |
| 2026-05-04 18:22 | 52.40195 | 12.12345 | 35502 ft | 427 kts | 319° |
| 2026-05-04 18:23 | 52.42619 | 12.09531 | 34775 ft | 427 kts | 319° |
| 2026-05-04 18:23 | 52.45032 | 12.06683 | 34077 ft | 427 kts | 318° |
| 2026-05-04 18:23 | 52.47433 | 12.03815 | 33283 ft | 427 kts | 318° |
| 2026-05-04 18:23 | 52.49802 | 12.00970 | 33040 ft | 416 kts | 318° |
| 2026-05-04 18:24 | 52.52109 | 11.98202 | 32678 ft | 408 kts | 317° |
| 2026-05-04 18:24 | 52.54386 | 11.95465 | 32175 ft | 404 kts | 317° |
| 2026-05-04 18:24 | 52.56645 | 11.92749 | 31658 ft | 401 kts | 317° |
| 2026-05-04 18:24 | 52.58888 | 11.90055 | 31144 ft | 398 kts | 317° |
| 2026-05-04 18:25 | 52.61116 | 11.87375 | 30744 ft | 393 kts | 317° |
| 2026-05-04 18:25 | 52.63308 | 11.84738 | 30372 ft | 388 kts | 317° |
| 2026-05-04 18:25 | 52.65472 | 11.82139 | 30032 ft | 382 kts | 317° |
| 2026-05-04 18:25 | 52.67612 | 11.79566 | 29584 ft | 378 kts | 317° |
| 2026-05-04 18:26 | 52.69724 | 11.77018 | 29310 ft | 381 kts | 317° |
| 2026-05-04 18:26 | 52.71910 | 11.74353 | 29027 ft | 400 kts | 317° |
| 2026-05-04 18:26 | 52.74176 | 11.71591 | 28721 ft | 408 kts | 317° |
| 2026-05-04 18:26 | 52.76466 | 11.68816 | 28422 ft | 409 kts | 318° |
| 2026-05-04 18:27 | 52.78759 | 11.66038 | 28126 ft | 408 kts | 318° |
| 2026-05-04 18:27 | 52.81039 | 11.63274 | 27833 ft | 406 kts | 318° |
| 2026-05-04 18:27 | 52.83315 | 11.60516 | 27543 ft | 405 kts | 318° |
| 2026-05-04 18:27 | 52.85577 | 11.57766 | 27255 ft | 403 kts | 318° |
| 2026-05-04 18:28 | 52.87827 | 11.55022 | 26973 ft | 401 kts | 317° |
| 2026-05-04 18:28 | 52.90063 | 11.52283 | 26664 ft | 398 kts | 317° |
| 2026-05-04 18:28 | 52.92286 | 11.49555 | 26293 ft | 397 kts | 317° |
| 2026-05-04 18:28 | 52.94500 | 11.46845 | 25835 ft | 394 kts | 317° |
| 2026-05-04 18:29 | 52.96698 | 11.44154 | 25398 ft | 392 kts | 317° |
| 2026-05-04 18:29 | 52.98885 | 11.41471 | 24963 ft | 389 kts | 317° |
| 2026-05-04 18:29 | 53.01052 | 11.38810 | 24530 ft | 387 kts | 317° |
| 2026-05-04 18:29 | 53.03211 | 11.36153 | 24110 ft | 385 kts | 317° |
| 2026-05-04 18:30 | 53.07482 | 11.30882 | 23230 ft | 380 kts | 318° |
| 2026-05-04 18:30 | 53.09598 | 11.28262 | 22739 ft | 378 kts | 318° |
| 2026-05-04 18:30 | 53.11700 | 11.25659 | 22258 ft | 376 kts | 318° |
| 2026-05-04 18:31 | 53.13789 | 11.23069 | 21791 ft | 373 kts | 318° |
| 2026-05-04 18:31 | 53.15864 | 11.20489 | 21315 ft | 371 kts | 318° |
| 2026-05-04 18:31 | 53.17926 | 11.17921 | 20855 ft | 369 kts | 319° |
| 2026-05-04 18:31 | 53.19972 | 11.15369 | 20402 ft | 366 kts | 319° |
| 2026-05-04 18:32 | 53.22003 | 11.12835 | 19959 ft | 364 kts | 319° |
| 2026-05-04 18:32 | 53.24023 | 11.10319 | 19521 ft | 361 kts | 319° |
| 2026-05-04 18:32 | 53.26029 | 11.07811 | 19091 ft | 359 kts | 319° |
| 2026-05-04 18:32 | 53.28019 | 11.05319 | 18663 ft | 356 kts | 319° |
| 2026-05-04 18:33 | 53.29995 | 11.02846 | 18240 ft | 354 kts | 320° |
| 2026-05-04 18:33 | 53.31961 | 11.00383 | 17758 ft | 352 kts | 320° |
| 2026-05-04 18:33 | 53.33910 | 10.97937 | 17284 ft | 350 kts | 320° |
| 2026-05-04 18:33 | 53.35852 | 10.95501 | 16813 ft | 348 kts | 320° |
| 2026-05-04 18:34 | 53.37783 | 10.93075 | 16348 ft | 346 kts | 320° |
| 2026-05-04 18:34 | 53.39679 | 10.90691 | 15922 ft | 344 kts | 320° |
| 2026-05-04 18:34 | 53.41577 | 10.88303 | 15590 ft | 340 kts | 320° |
| 2026-05-04 18:34 | 53.43462 | 10.85923 | 15101 ft | 340 kts | 320° |
| 2026-05-04 18:35 | 53.45349 | 10.83538 | 14617 ft | 340 kts | 320° |
| 2026-05-04 18:35 | 53.47235 | 10.81151 | 14140 ft | 340 kts | 320° |
| 2026-05-04 18:35 | 53.49123 | 10.78759 | 13655 ft | 340 kts | 320° |
| 2026-05-04 18:35 | 53.51007 | 10.76370 | 13123 ft | 339 kts | 320° |
| 2026-05-04 18:36 | 53.52886 | 10.73985 | 12606 ft | 338 kts | 320° |
| 2026-05-04 18:36 | 53.54758 | 10.71609 | 12081 ft | 337 kts | 320° |
| 2026-05-04 18:36 | 53.56619 | 10.69242 | 11576 ft | 333 kts | 320° |
| 2026-05-04 18:36 | 53.58433 | 10.66938 | 11077 ft | 319 kts | 320° |
| 2026-05-04 18:37 | 53.60175 | 10.64724 | 10585 ft | 309 kts | 320° |
| 2026-05-04 18:37 | 53.61884 | 10.62552 | 10107 ft | 308 kts | 319° |
| 2026-05-04 18:37 | 53.63593 | 10.60374 | 9603 ft | 308 kts | 320° |
| 2026-05-04 18:37 | 53.65302 | 10.58191 | 9081 ft | 309 kts | 319° |
| 2026-05-04 18:38 | 53.67011 | 10.56002 | 8551 ft | 308 kts | 319° |
| 2026-05-04 18:38 | 53.68719 | 10.53808 | 8061 ft | 308 kts | 319° |
| 2026-05-04 18:38 | 53.70418 | 10.51619 | 7541 ft | 307 kts | 319° |
| 2026-05-04 18:38 | 53.72116 | 10.49434 | 7047 ft | 306 kts | 320° |
| 2026-05-04 18:39 | 53.73782 | 10.47293 | 6548 ft | 294 kts | 319° |
| 2026-05-04 18:39 | 53.75378 | 10.45251 | 6045 ft | 282 kts | 320° |
| 2026-05-04 18:39 | 53.76911 | 10.43285 | 5531 ft | 271 kts | 320° |
| 2026-05-04 18:39 | 53.78228 | 10.41142 | 5027 ft | 257 kts | 301° |
| 2026-05-04 18:40 | 53.78970 | 10.38477 | 4522 ft | 246 kts | 285° |
| 2026-05-04 18:40 | 53.79235 | 10.35716 | 3949 ft | 231 kts | 273° |
| 2026-05-04 18:40 | 53.79274 | 10.33062 | 3395 ft | 221 kts | 268° |
| 2026-05-04 18:40 | 53.78974 | 10.30649 | 3094 ft | 201 kts | 245° |
| 2026-05-04 18:41 | 53.78159 | 10.28854 | 2939 ft | 189 kts | 225° |
| 2026-05-04 18:41 | 53.77210 | 10.27379 | 2781 ft | 180 kts | 226° |
| 2026-05-04 18:41 | 53.76340 | 10.25828 | 2884 ft | 182 kts | 230° |
| 2026-05-04 18:41 | 53.75514 | 10.24210 | 2953 ft | 182 kts | 232° |
| 2026-05-04 18:42 | 53.74712 | 10.22592 | 2976 ft | 176 kts | 232° |
| 2026-05-04 18:42 | 53.73940 | 10.21018 | 2987 ft | 172 kts | 232° |
| 2026-05-04 18:42 | 53.73176 | 10.19460 | 2934 ft | 172 kts | 232° |
| 2026-05-04 18:42 | 53.72416 | 10.17907 | 2760 ft | 171 kts | 232° |
| 2026-05-04 18:43 | 53.71667 | 10.16379 | 2550 ft | 171 kts | 232° |
| 2026-05-04 18:43 | 53.70909 | 10.14832 | 2324 ft | 171 kts | 232° |
| 2026-05-04 18:43 | 53.70152 | 10.13288 | 2095 ft | 171 kts | 232° |
| 2026-05-04 18:43 | 53.69399 | 10.11756 | 1861 ft | 165 kts | 232° |
| 2026-05-04 18:44 | 53.68691 | 10.10314 | 1637 ft | 155 kts | 233° |
| 2026-05-04 18:44 | 53.68461 | 10.09845 | 1568 ft | 154 kts | 232° |
| 2026-05-04 18:44 | 53.67339 | 10.07563 | 1233 ft | 151 kts | 232° |
| 2026-05-04 18:44 | 53.66669 | 10.06201 | 1031 ft | 151 kts | 233° |
| 2026-05-04 18:45 | 53.66002 | 10.04845 | 831 ft | 149 kts | 233° |
| 2026-05-04 18:45 | 53.65340 | 10.03501 | 631 ft | 148 kts | 233° |
| 2026-05-04 18:45 | 53.64679 | 10.02159 | 423 ft | 149 kts | 233° |
| 2026-05-04 18:45 | 53.64020 | 10.00822 | 224 ft | 148 kts | 232° |
| 2026-05-04 18:46 | 53.63371 | 9.99499 | 50 ft | 141 kts | 232° |
| 2026-05-04 18:46 | 53.62896 | 9.98526 | 44 ft | 47 kts | 230° |
| 2026-05-04 18:46 | 53.62789 | 9.98345 | 41 ft | 13 kts | 191° |
| 2026-05-04 18:46 | 53.62725 | 9.98384 | 44 ft | 6 kts | 144° |
| 2026-05-04 18:47 | 53.62684 | 9.98445 | 46 ft | 10 kts | 136° |
| 2026-05-04 18:47 | 53.62684 | 9.98542 | 44 ft | 8 kts | 53° |
| 2026-05-04 18:47 | 53.62720 | 9.98608 | 47 ft | 7 kts | 48° |
| 2026-05-04 18:47 | 53.62766 | 9.98701 | 47 ft | 16 kts | 50° |
| 2026-05-04 18:48 | 53.62841 | 9.98854 | 47 ft | 17 kts | 51° |
| 2026-05-04 18:48 | 53.62902 | 9.98980 | 47 ft | 13 kts | 51° |
| 2026-05-04 18:48 | 53.62958 | 9.99096 | 47 ft | 14 kts | 50° |
| 2026-05-04 18:48 | 53.63017 | 9.99212 | 47 ft | 12 kts | 50° |
| 2026-05-04 18:49 | 53.63062 | 9.99310 | 47 ft | 8 kts | 56° |
| 2026-05-04 18:49 | 53.63080 | 9.99353 | 47 ft | 1 kts | 56° |
| 2026-05-04 18:49 | 53.63084 | 9.99363 | 47 ft | 3 kts | 55° |
| 2026-05-04 18:49 | 53.63126 | 9.99466 | 46 ft | 13 kts | 55° |
| 2026-05-04 18:50 | 53.63177 | 9.99578 | 46 ft | 11 kts | 50° |
| 2026-05-04 18:50 | 53.63216 | 9.99656 | 48 ft | 7 kts | 50° |
| 2026-05-04 18:50 | 53.63224 | 9.99730 | 48 ft | 7 kts | 104° |
| 2026-05-04 18:50 | 53.63191 | 9.99788 | 48 ft | 7 kts | 146° |
| 2026-05-04 18:51 | 53.63154 | 9.99825 | 48 ft | 6 kts | 150° |
| 2026-05-04 18:51 | 53.63122 | 9.99855 | 48 ft | 5 kts | 153° |
| 2026-05-04 18:51 | 53.63092 | 9.99880 | 48 ft | 14 kts | 155° |
| 2026-05-04 18:51 | 53.62970 | 9.99980 | 48 ft | 11 kts | 144° |
| 2026-05-04 18:52 | 53.62946 | 10.00019 | 48 ft | 5 kts | 129° |
| 2026-05-04 18:52 | 53.62932 | 10.00060 | 46 ft | 2 kts | 124° |
| 2026-05-04 18:52 | 53.62905 | 10.00144 | 48 ft | 12 kts | 109° |
| 2026-05-04 18:52 | 53.62890 | 10.00214 | 47 ft | 3 kts | 119° |
| 2026-05-04 18:53 | 53.62886 | 10.00226 | 48 ft | 1 kts | 120° |
| 2026-05-04 18:53 | 53.62885 | 10.00228 | 48 ft | 0 kts | 120° |